Time;durP1;ratioP1;P1;durP2;ratioP2;P2;SDS_P1;SDS_P2;PMS_P1;PMS_P2;Temp;Humidity;BMP_temperature;BMP_pressure;BME280_temperature;BME280_humidity;BME280_pressure;Samples;Min_cycle;Max_cycle;Signal;HPM_P1;HPM_P2
2023/07/26 00:03:43;;;;;;;7.10;4.78;;;;;15.00;100692.00;;;;10334149;28;20227;-79
2023/07/26 00:08:45;;;;;;;10.82;6.45;;;;;15.10;100689.00;;;;10332385;28;20207;-79
2023/07/26 00:13:48;;;;;;;8.35;3.25;;;;;15.10;100686.00;;;;10333043;28;20269;-80
2023/07/26 00:18:50;;;;;;;4.78;2.35;;;;;15.00;100675.00;;;;10327624;28;20334;-79
2023/07/26 00:23:52;;;;;;;7.78;2.28;;;;;14.80;100676.00;;;;10328365;28;20237;-79
2023/07/26 00:28:54;;;;;;;3.37;2.20;;;;;14.60;100676.00;;;;10309545;28;21066;-79
2023/07/26 00:33:56;;;;;;;4.28;2.22;;;;;14.30;100672.00;;;;10321354;28;20203;-78
2023/07/26 00:38:58;;;;;;;6.53;2.33;;;;;14.10;100669.00;;;;10316028;28;20234;-79
2023/07/26 00:44:01;;;;;;;6.73;3.63;;;;;14.00;100671.00;;;;10322204;28;20913;-77
2023/07/26 00:49:03;;;;;;;4.60;2.57;;;;;13.90;100674.00;;;;10315493;28;20692;-79
2023/07/26 00:54:08;;;;;;;3.10;2.40;;;;;13.90;100672.00;;;;10315883;28;20678;-79
2023/07/26 00:59:10;;;;;;;5.30;2.80;;;;;13.90;100677.00;;;;10332786;28;20217;-76
2023/07/26 01:04:12;;;;;;;4.10;3.10;;;;;13.90;100669.00;;;;10315582;28;20223;-75
2023/07/26 01:09:31;;;;;;;6.67;3.00;;;;;13.90;100671.00;;;;10330951;28;20298;-77
2023/07/26 01:15:06;;;;;;;7.47;3.20;;;;;13.80;100670.00;;;;10334031;28;20672;-79
2023/07/26 01:20:09;;;;;;;6.70;3.40;;;;;13.80;100672.00;;;;10318661;28;20211;-78
2023/07/26 01:25:11;;;;;;;6.10;3.57;;;;;13.90;100676.00;;;;10317077;28;21791;-79
2023/07/26 01:30:16;;;;;;;5.93;3.50;;;;;13.90;100668.00;;;;10335654;28;20214;-79
2023/07/26 01:35:21;;;;;;;8.77;3.87;;;;;13.90;100667.00;;;;10335015;28;20214;-78
2023/07/26 01:40:24;;;;;;;4.03;3.13;;;;;13.80;100666.00;;;;10338541;28;20207;-79
2023/07/26 01:45:43;;;;;;;4.70;3.70;;;;;13.70;100672.00;;;;10342144;28;20223;-79
2023/07/26 01:50:45;;;;;;;10.93;4.90;;;;;13.60;100667.00;;;;10341426;28;20226;-79
2023/07/26 01:55:47;;;;;;;5.87;4.13;;;;;13.70;100667.00;;;;10340093;28;21634;-79
2023/07/26 02:00:49;;;;;;;8.73;4.20;;;;;13.60;100670.00;;;;10339721;28;20218;-77
2023/07/26 02:05:51;;;;;;;5.40;4.20;;;;;13.60;100668.00;;;;10337424;28;21822;-76
2023/07/26 02:10:54;;;;;;;7.57;4.47;;;;;13.60;100671.00;;;;10339232;28;20203;-75
2023/07/26 02:15:56;;;;;;;6.63;4.00;;;;;13.60;100684.00;;;;10320488;28;21756;-80
2023/07/26 02:20:58;;;;;;;10.00;4.33;;;;;13.60;100677.00;;;;10322636;28;20285;-77
2023/07/26 02:26:00;;;;;;;5.33;3.50;;;;;13.60;100668.00;;;;10341059;28;20211;-74
2023/07/26 02:31:02;;;;;;;8.10;4.60;;;;;13.60;100671.00;;;;10336396;28;20300;-79
2023/07/26 02:36:05;;;;;;;11.20;4.00;;;;;13.60;100676.00;;;;10309487;28;20739;-76
2023/07/26 02:41:07;;;;;;;9.30;4.47;;;;;13.70;100664.00;;;;10318711;28;20231;-79
2023/07/26 02:46:09;;;;;;;10.13;4.17;;;;;13.80;100668.00;;;;10341522;28;20296;-79
2023/07/26 02:51:11;;;;;;;10.17;4.47;;;;;13.90;100666.00;;;;10308233;28;20207;-79
2023/07/26 02:56:14;;;;;;;12.37;4.53;;;;;13.90;100663.00;;;;10323950;28;20203;-78
2023/07/26 03:01:16;;;;;;;9.07;5.13;;;;;13.80;100663.00;;;;10336062;28;20230;-76
2023/07/26 03:06:18;;;;;;;12.27;5.40;;;;;13.80;100662.00;;;;10339900;28;20238;-77
2023/07/26 03:11:20;;;;;;;11.07;5.70;;;;;13.70;100663.00;;;;10337150;28;20215;-79
2023/07/26 03:16:22;;;;;;;13.93;5.77;;;;;13.60;100673.00;;;;10340992;28;20905;-77
2023/07/26 03:21:24;;;;;;;8.20;5.63;;;;;13.50;100665.00;;;;10316143;28;21124;-76
2023/07/26 03:26:26;;;;;;;12.43;6.50;;;;;13.40;100682.00;;;;10298873;28;20203;-79
2023/07/26 03:31:29;;;;;;;10.33;7.07;;;;;13.40;100684.00;;;;10320301;28;20210;-78
2023/07/26 03:36:31;;;;;;;13.43;6.57;;;;;13.40;100693.00;;;;10321433;28;20211;-79
2023/07/26 03:41:33;;;;;;;13.57;6.50;;;;;13.40;100695.00;;;;10340800;28;20387;-79
2023/07/26 03:46:35;;;;;;;9.67;7.00;;;;;13.30;100701.00;;;;10335772;28;20214;-79
2023/07/26 03:51:38;;;;;;;11.40;6.47;;;;;13.20;100694.00;;;;10322857;28;20230;-78
2023/07/26 03:56:41;;;;;;;12.43;6.83;;;;;13.20;100695.00;;;;10338557;28;20218;-79
2023/07/26 04:01:43;;;;;;;10.07;7.00;;;;;13.10;100692.00;;;;10337993;28;20214;-79
2023/07/26 04:06:45;;;;;;;14.47;7.63;;;;;13.10;100681.00;;;;10320873;28;20202;-79
2023/07/26 04:11:47;;;;;;;11.63;7.10;;;;;13.10;100689.00;;;;10297966;28;20244;-79
2023/07/26 04:16:50;;;;;;;14.03;8.50;;;;;13.20;100691.00;;;;10318059;28;20211;-79
2023/07/26 04:21:52;;;;;;;18.90;8.03;;;;;13.20;100692.00;;;;10338970;28;20230;-79
2023/07/26 04:26:54;;;;;;;15.03;8.50;;;;;13.40;100689.00;;;;10335488;28;20290;-79
2023/07/26 04:31:57;;;;;;;22.90;8.93;;;;;13.50;100695.00;;;;10316846;28;20199;-79
2023/07/26 04:36:59;;;;;;;13.63;8.53;;;;;13.70;100698.00;;;;10338500;28;20341;-79
2023/07/26 04:42:02;;;;;;;13.20;8.23;;;;;13.90;100693.00;;;;10331943;28;21773;-79
2023/07/26 04:47:04;;;;;;;15.83;7.90;;;;;14.10;100699.00;;;;10318243;28;20764;-79
2023/07/26 04:52:06;;;;;;;20.13;8.30;;;;;14.30;100689.00;;;;10337093;28;20202;-80
2023/07/26 04:57:08;;;;;;;14.50;7.70;;;;;14.40;100700.00;;;;10303752;28;20301;-79
2023/07/26 05:02:11;;;;;;;13.07;7.93;;;;;14.50;100703.00;;;;10306271;28;21109;-79
2023/07/26 05:07:13;;;;;;;13.47;7.80;;;;;14.70;100700.00;;;;10333793;28;20241;-79
2023/07/26 05:12:15;;;;;;;13.93;7.63;;;;;15.00;100701.00;;;;10320715;28;20333;-79
2023/07/26 05:17:17;;;;;;;13.80;7.60;;;;;14.80;100710.00;;;;10328729;28;20241;-79
2023/07/26 05:22:19;;;;;;;13.40;6.63;;;;;14.70;100716.00;;;;10340105;28;20917;-79
2023/07/26 05:27:21;;;;;;;11.97;6.57;;;;;14.60;100712.00;;;;10329083;28;20215;-80
2023/07/26 05:32:24;;;;;;;14.57;8.00;;;;;15.10;100709.00;;;;10342435;28;20207;-80
2023/07/26 05:37:29;;;;;;;13.57;7.38;;;;;15.50;100713.00;;;;10342062;28;20256;-80
2023/07/26 05:42:32;;;;;;;14.35;7.20;;;;;15.80;100712.00;;;;10341962;28;20238;-80
2023/07/26 05:47:38;;;;;;;14.32;6.10;;;;;15.90;100709.00;;;;10341033;28;20202;-80
2023/07/26 05:52:40;;;;;;;8.13;6.30;;;;;16.70;100710.00;;;;10326521;28;20206;-80
2023/07/26 05:57:45;;;;;;;11.52;5.93;;;;;17.00;100718.00;;;;10322624;28;20905;-80
2023/07/26 06:02:48;;;;;;;13.95;5.22;;;;;18.20;100721.00;;;;10325684;28;20280;-80
2023/07/26 06:07:50;;;;;;;13.80;5.03;;;;;18.50;100729.00;;;;10339589;28;20300;-80
2023/07/26 06:12:52;;;;;;;7.68;4.10;;;;;17.90;100731.00;;;;10324654;28;20207;-80
2023/07/26 06:17:54;;;;;;;11.13;5.25;;;;;17.60;100741.00;;;;10342406;28;20203;-79
2023/07/26 06:22:56;;;;;;;10.18;5.38;;;;;17.70;100736.00;;;;10338616;28;20250;-79
2023/07/26 06:27:59;;;;;;;12.20;5.72;;;;;17.60;100745.00;;;;10323954;28;20768;-79
2023/07/26 06:33:01;;;;;;;10.77;5.28;;;;;17.50;100755.00;;;;10320579;28;20226;-80
2023/07/26 06:38:03;;;;;;;10.73;5.53;;;;;18.10;100745.00;;;;10334567;28;21100;-79
2023/07/26 06:43:06;;;;;;;9.27;5.80;;;;;18.40;100754.00;;;;10317946;28;20921;-80
2023/07/26 06:48:08;;;;;;;7.07;4.63;;;;;19.30;100758.00;;;;10308140;28;20210;-79
2023/07/26 06:53:11;;;;;;;9.75;5.20;;;;;19.80;100765.00;;;;10333166;28;21463;-80
2023/07/26 06:58:13;;;;;;;12.27;4.38;;;;;20.30;100757.00;;;;10298315;28;20206;-79
2023/07/26 07:03:15;;;;;;;6.40;4.25;;;;;21.00;100768.00;;;;10335005;28;20316;-78
2023/07/26 07:08:17;;;;;;;7.40;3.72;;;;;22.30;100770.00;;;;10335425;28;22026;-78
2023/07/26 07:13:19;;;;;;;10.10;3.88;;;;;22.50;100768.00;;;;10335545;28;20218;-78
2023/07/26 07:18:22;;;;;;;10.63;3.83;;;;;22.10;100776.00;;;;10336203;28;20313;-78
2023/07/26 07:23:25;;;;;;;9.07;3.97;;;;;20.70;100777.00;;;;10314254;28;21125;-78
2023/07/26 07:28:27;;;;;;;7.38;4.30;;;;;19.60;100788.00;;;;10332363;28;20222;-78
2023/07/26 07:33:30;;;;;;;8.38;3.88;;;;;20.30;100783.00;;;;10316099;28;20308;-77
2023/07/26 07:38:31;;;;;;;7.75;3.78;;;;;21.70;100783.00;;;;10333149;28;20214;-77
2023/07/26 07:43:34;;;;;;;6.63;3.80;;;;;22.70;100779.00;;;;10331427;28;21938;-78
2023/07/26 07:48:36;;;;;;;5.72;3.40;;;;;22.80;100778.00;;;;10301537;28;20241;-78
2023/07/26 07:53:56;;;;;;;9.98;3.10;;;;;22.60;100774.00;;;;10526711;27;21992;-77
2023/07/26 07:58:57;;;;;;;8.05;2.90;;;;;24.00;100776.00;;;;10488472;27;20196;-76
2023/07/26 08:03:59;;;;;;;4.40;3.10;;;;;23.30;100786.00;;;;10483121;27;20941;-78
2023/07/26 08:09:01;;;;;;;6.28;3.53;;;;;23.40;100784.00;;;;10516001;27;20856;-77
2023/07/26 08:14:03;;;;;;;5.15;3.33;;;;;24.20;100776.00;;;;10489872;27;20185;-78
2023/07/26 08:19:04;;;;;;;4.47;3.20;;;;;24.00;100782.00;;;;10481509;27;20283;-78
2023/07/26 08:24:06;;;;;;;4.32;2.63;;;;;23.90;100783.00;;;;10520071;27;20203;-78
2023/07/26 08:29:10;;;;;;;5.68;2.80;;;;;24.00;100774.00;;;;10504031;27;20268;-78
2023/07/26 08:34:11;;;;;;;4.25;3.28;;;;;24.80;100787.00;;;;10493672;27;21459;-78
2023/07/26 08:39:13;;;;;;;4.50;2.88;;;;;25.60;100795.00;;;;10502774;27;20843;-78
2023/07/26 08:44:32;;;;;;;5.20;3.10;;;;;25.60;100786.00;;;;10479803;27;20245;-79
2023/07/26 08:49:34;;;;;;;3.33;2.65;;;;;26.90;100784.00;;;;10478538;27;21878;-77
2023/07/26 08:54:36;;;;;;;4.95;2.83;;;;;26.10;100790.00;;;;10500870;27;20204;-79
2023/07/26 08:59:37;;;;;;;3.80;2.72;;;;;26.30;100794.00;;;;10496727;27;20212;-78
2023/07/26 09:04:39;;;;;;;5.15;2.95;;;;;26.20;100785.00;;;;10443807;27;20427;-78
2023/07/26 09:09:40;;;;;;;3.67;2.85;;;;;26.30;100790.00;;;;10470033;27;20868;-78
2023/07/26 09:14:43;;;;;;;3.30;2.70;;;;;26.30;100783.00;;;;10461971;27;20223;-77
2023/07/26 09:19:45;;;;;;;4.28;2.70;;;;;27.60;100772.00;;;;10452190;27;20691;-79
2023/07/26 09:24:50;;;;;;;5.10;2.60;;;;;27.00;100786.00;;;;10462613;27;20267;-79
2023/07/26 09:29:56;;;;;;;5.38;2.90;;;;;27.10;100778.00;;;;10439603;27;20228;-77
2023/07/26 09:34:59;;;;;;;4.55;3.20;;;;;27.50;100770.00;;;;10450362;27;20318;-76
2023/07/26 09:40:01;;;;;;;3.72;2.72;;;;;27.50;100788.00;;;;10471859;27;20297;-78
2023/07/26 09:45:03;;;;;;;5.55;2.70;;;;;27.10;100784.00;;;;10456009;27;20290;-79
2023/07/26 09:50:06;;;;;;;5.22;2.42;;;;;27.50;100783.00;;;;10459684;27;20228;-78
2023/07/26 09:55:11;;;;;;;3.00;2.70;;;;;28.30;100777.00;;;;10476204;27;21656;-77
2023/07/26 10:00:23;;;;;;;4.05;3.20;;;;;26.90;100786.00;;;;10474347;27;20228;-78
2023/07/26 10:05:26;;;;;;;3.53;3.10;;;;;26.60;100764.00;;;;10456553;27;20262;-78
2023/07/26 10:10:28;;;;;;;2.88;2.40;;;;;27.10;100771.00;;;;10468212;27;20232;-79
2023/07/26 10:15:30;;;;;;;3.58;3.03;;;;;26.80;100786.00;;;;10465595;27;20220;-78
2023/07/26 10:20:32;;;;;;;4.40;2.72;;;;;28.50;100769.00;;;;10448341;27;20208;-78
2023/07/26 10:25:33;;;;;;;5.13;3.22;;;;;28.90;100766.00;;;;10469179;27;20210;-76
2023/07/26 10:30:35;;;;;;;3.88;3.10;;;;;27.10;100784.00;;;;10455524;27;20219;-78
2023/07/26 10:35:36;;;;;;;5.63;2.90;;;;;24.50;100788.00;;;;10471897;27;20220;-78
2023/07/26 10:40:39;;;;;;;4.03;2.80;;;;;23.00;100789.00;;;;10454414;27;20210;-76
2023/07/26 10:45:44;;;;;;;4.25;2.90;;;;;22.40;100788.00;;;;10468711;27;20211;-77
2023/07/26 10:50:45;;;;;;;4.80;3.55;;;;;22.80;100788.00;;;;10453563;27;20220;-78
2023/07/26 10:55:50;;;;;;;4.53;3.20;;;;;21.40;100791.00;;;;10452609;27;20212;-77
2023/07/26 11:01:00;;;;;;;4.32;2.90;;;;;21.10;100791.00;;;;10434451;27;21200;-77
2023/07/26 11:06:01;;;;;;;5.57;3.25;;;;;22.80;100782.00;;;;10470848;28;20344;-76
2023/07/26 11:11:03;;;;;;;5.45;3.58;;;;;23.10;100794.00;;;;10468208;27;20680;-76
2023/07/26 11:16:04;;;;;;;6.05;3.60;;;;;22.50;100806.00;;;;10473100;27;20290;-77
2023/07/26 11:21:17;;;;;;;5.35;2.47;;;;;22.60;100797.00;;;;10453241;27;20213;-77
2023/07/26 11:26:19;;;;;;;4.53;3.10;;;;;24.40;100789.00;;;;10455047;27;22015;-76
2023/07/26 11:31:22;;;;;;;4.53;2.80;;;;;26.70;100773.00;;;;10472102;27;20259;-76
2023/07/26 11:36:25;;;;;;;2.80;2.47;;;;;27.00;100787.00;;;;10471153;27;20211;-76
2023/07/26 11:41:26;;;;;;;3.22;2.53;;;;;27.80;100793.00;;;;10434483;27;20207;-76
2023/07/26 11:46:29;;;;;;;3.28;2.97;;;;;28.00;100778.00;;;;10453678;27;20208;-77
2023/07/26 11:51:32;;;;;;;3.88;2.80;;;;;29.20;100771.00;;;;10466845;27;20220;-76
2023/07/26 11:56:36;;;;;;;3.53;2.90;;;;;27.60;100780.00;;;;10454098;28;20816;-77
2023/07/26 12:01:38;;;;;;;3.75;3.15;;;;;28.70;100772.00;;;;10434942;27;20322;-77
2023/07/26 12:06:41;;;;;;;5.82;2.70;;;;;28.80;100781.00;;;;10453704;28;21673;-75
2023/07/26 12:11:51;;;;;;;4.18;2.92;;;;;26.50;100769.00;;;;10471362;27;20216;-77
2023/07/26 12:16:53;;;;;;;3.28;2.78;;;;;25.70;100778.00;;;;10468596;27;21086;-78
2023/07/26 12:21:56;;;;;;;4.32;2.78;;;;;24.70;100790.00;;;;10469446;27;20263;-77
2023/07/26 12:26:59;;;;;;;5.53;2.92;;;;;23.70;100782.00;;;;10469037;27;20253;-77
2023/07/26 12:32:05;;;;;;;5.07;3.47;;;;;23.00;100775.00;;;;10439080;27;20487;-77
2023/07/26 12:37:07;;;;;;;4.68;3.50;;;;;22.90;100778.00;;;;10457693;27;20232;-77
2023/07/26 12:42:08;;;;;;;5.30;3.58;;;;;22.60;100783.00;;;;10478970;27;20204;-77
2023/07/26 12:47:09;;;;;;;3.00;2.63;;;;;23.20;100784.00;;;;10461097;27;20227;-76
2023/07/26 12:52:31;;;;;;;4.68;2.72;;;;;23.80;100779.00;;;;10460423;27;20845;-77
2023/07/26 12:57:32;;;;;;;4.45;2.80;;;;;25.70;100765.00;;;;10458344;27;20212;-80
2023/07/26 13:02:34;;;;;;;5.25;3.00;;;;;27.00;100768.00;;;;10461240;27;20239;-79
2023/07/26 13:07:35;;;;;;;4.25;2.50;;;;;25.80;100775.00;;;;10479589;27;20852;-79
2023/07/26 13:12:37;;;;;;;4.63;2.80;;;;;24.70;100772.00;;;;10480251;27;20356;-77
2023/07/26 13:17:38;;;;;;;4.07;2.83;;;;;24.60;100770.00;;;;10478723;27;20249;-75
2023/07/26 13:22:40;;;;;;;4.10;2.80;;;;;25.60;100775.00;;;;10474946;27;20195;-77
2023/07/26 13:27:42;;;;;;;3.58;3.10;;;;;25.50;100767.00;;;;10478095;27;20205;-79
2023/07/26 13:32:43;;;;;;;6.57;3.40;;;;;26.80;100763.00;;;;10461463;27;20224;-78
2023/07/26 13:37:45;;;;;;;4.35;2.45;;;;;27.10;100754.00;;;;10442394;27;20326;-79
2023/07/26 13:42:47;;;;;;;3.08;2.50;;;;;26.80;100759.00;;;;10471608;27;21654;-78
2023/07/26 13:47:48;;;;;;;3.50;2.88;;;;;27.20;100759.00;;;;10453865;27;21972;-77
2023/07/26 13:52:49;;;;;;;4.03;2.65;;;;;28.30;100772.00;;;;10473116;27;21491;-78
2023/07/26 13:57:50;;;;;;;7.13;2.78;;;;;27.90;100771.00;;;;10472616;27;20324;-78
2023/07/26 14:02:52;;;;;;;3.67;2.55;;;;;26.70;100762.00;;;;10473587;27;20207;-77
2023/07/26 14:07:53;;;;;;;3.75;2.83;;;;;25.90;100751.00;;;;10474643;27;20883;-78
2023/07/26 14:12:55;;;;;;;4.88;2.90;;;;;27.60;100754.00;;;;10456839;27;20298;-78
2023/07/26 14:17:56;;;;;;;2.38;2.17;;;;;26.90;100745.00;;;;10472322;27;20227;-78
2023/07/26 14:22:57;;;;;;;4.53;2.85;;;;;25.70;100750.00;;;;10473018;27;20209;-78
2023/07/26 14:27:59;;;;;;;3.67;2.72;;;;;25.50;100752.00;;;;10474061;27;20233;-78
2023/07/26 14:33:00;;;;;;;5.03;3.00;;;;;25.20;100742.00;;;;10473956;27;20231;-77
2023/07/26 14:38:02;;;;;;;6.28;2.70;;;;;25.60;100739.00;;;;10441398;27;20239;-77
2023/07/26 14:43:03;;;;;;;3.67;2.58;;;;;25.60;100749.00;;;;10450444;27;22407;-76
2023/07/26 14:48:05;;;;;;;3.42;2.60;;;;;25.20;100745.00;;;;10470951;27;20934;-78
2023/07/26 14:53:06;;;;;;;4.43;2.65;;;;;24.80;100739.00;;;;10470349;27;20212;-78
2023/07/26 14:58:08;;;;;;;3.53;2.33;;;;;24.60;100741.00;;;;10455332;27;20215;-79
2023/07/26 15:03:09;;;;;;;4.10;2.53;;;;;25.10;100735.00;;;;10457238;27;20212;-78
2023/07/26 15:08:11;;;;;;;3.85;2.25;;;;;25.30;100747.00;;;;10477382;27;20789;-79
2023/07/26 15:13:13;;;;;;;5.05;2.45;;;;;25.70;100739.00;;;;10474522;27;20275;-78
2023/07/26 15:18:14;;;;;;;4.03;2.00;;;;;25.90;100735.00;;;;10472062;28;20875;-78
2023/07/26 15:23:15;;;;;;;3.95;2.47;;;;;25.60;100729.00;;;;10474239;27;20200;-79
2023/07/26 15:28:17;;;;;;;3.42;2.45;;;;;25.80;100725.00;;;;10454491;27;21919;-78
2023/07/26 15:33:18;;;;;;;4.25;2.13;;;;;27.60;100719.00;;;;10472713;27;20258;-78
2023/07/26 15:38:21;;;;;;;3.80;2.25;;;;;26.20;100714.00;;;;10429129;27;20384;-79
2023/07/26 15:43:26;;;;;;;3.08;2.05;;;;;25.70;100713.00;;;;10465682;27;20219;-79
2023/07/26 15:48:27;;;;;;;5.35;2.22;;;;;25.70;100702.00;;;;10452183;27;20205;-77
2023/07/26 15:53:28;;;;;;;3.58;1.80;;;;;24.90;100705.00;;;;10439781;27;20928;-78
2023/07/26 15:58:29;;;;;;;3.90;1.83;;;;;25.40;100704.00;;;;10465984;27;20312;-78
2023/07/26 16:03:31;;;;;;;3.75;2.22;;;;;25.60;100707.00;;;;10468710;27;20227;-77
2023/07/26 16:08:35;;;;;;;6.28;2.17;;;;;25.40;100698.00;;;;10457397;27;20247;-78
2023/07/26 16:13:39;;;;;;;6.45;2.50;;;;;25.50;100696.00;;;;10471896;27;20236;-78
2023/07/26 16:18:41;;;;;;;3.00;2.00;;;;;25.20;100692.00;;;;10480224;27;20213;-77
2023/07/26 16:24:02;;;;;;;4.47;2.28;;;;;25.10;100677.00;;;;10460488;28;20197;-77
2023/07/26 16:29:05;;;;;;;5.57;2.65;;;;;25.60;100678.00;;;;10480392;27;20343;-77
2023/07/26 16:34:07;;;;;;;3.70;2.38;;;;;25.10;100677.00;;;;10472887;27;22224;-77
2023/07/26 16:39:08;;;;;;;3.67;2.17;;;;;24.40;100668.00;;;;10464839;27;20285;-77
2023/07/26 16:44:10;;;;;;;5.20;2.25;;;;;24.40;100667.00;;;;10456067;27;20200;-79
2023/07/26 16:49:11;;;;;;;4.70;2.30;;;;;24.30;100672.00;;;;10477675;27;21600;-78
2023/07/26 16:54:14;;;;;;;2.83;2.20;;;;;24.20;100662.00;;;;10440971;27;20550;-77
2023/07/26 16:59:16;;;;;;;4.50;2.58;;;;;24.30;100656.00;;;;10459778;27;20204;-78
2023/07/26 17:04:17;;;;;;;4.53;2.20;;;;;24.20;100659.00;;;;10471495;27;21010;-76
2023/07/26 17:09:19;;;;;;;5.47;1.95;;;;;23.90;100679.00;;;;10454182;27;20668;-77
2023/07/26 17:14:20;;;;;;;3.05;2.05;;;;;23.90;100672.00;;;;10453577;27;20223;-78
2023/07/26 17:19:21;;;;;;;4.28;2.25;;;;;23.70;100655.00;;;;10473588;27;20818;-78
2023/07/26 17:24:23;;;;;;;3.28;2.55;;;;;23.60;100658.00;;;;10454212;27;20212;-77
2023/07/26 17:29:24;;;;;;;6.18;2.40;;;;;23.40;100651.00;;;;10456663;27;20208;-78
2023/07/26 17:34:26;;;;;;;5.38;2.25;;;;;23.20;100657.00;;;;10473756;27;20378;-78
2023/07/26 17:39:27;;;;;;;5.72;2.72;;;;;23.20;100655.00;;;;10451878;27;20757;-78
2023/07/26 17:44:29;;;;;;;4.40;2.53;;;;;23.20;100659.00;;;;10469728;27;20208;-76
2023/07/26 17:49:30;;;;;;;4.30;2.30;;;;;23.00;100662.00;;;;10467775;27;20205;-77
2023/07/26 17:54:36;;;;;;;4.32;2.22;;;;;22.80;100664.00;;;;10447354;27;21932;-78
2023/07/26 17:59:38;;;;;;;3.20;2.30;;;;;22.50;100665.00;;;;10447314;27;20230;-78
2023/07/26 18:04:40;;;;;;;6.55;2.60;;;;;22.30;100661.00;;;;10462619;27;20206;-77
2023/07/26 18:09:41;;;;;;;6.47;2.78;;;;;22.10;100663.00;;;;10446231;27;20215;-78
2023/07/26 18:14:43;;;;;;;3.97;2.30;;;;;21.90;100657.00;;;;10460756;27;20230;-78
2023/07/26 18:19:45;;;;;;;5.63;2.70;;;;;21.60;100652.00;;;;10448298;27;20670;-77
2023/07/26 18:24:49;;;;;;;3.92;2.40;;;;;21.40;100656.00;;;;10449706;27;20207;-78
2023/07/26 18:29:51;;;;;;;6.20;2.88;;;;;21.40;100643.00;;;;10473115;27;21895;-77
2023/07/26 18:34:52;;;;;;;4.80;2.70;;;;;21.30;100640.00;;;;10453897;27;20255;-77
2023/07/26 18:39:53;;;;;;;6.00;2.78;;;;;21.20;100647.00;;;;10474354;27;20204;-78
2023/07/26 18:44:55;;;;;;;4.03;2.20;;;;;21.00;100664.00;;;;10452614;27;20203;-77
2023/07/26 18:49:56;;;;;;;4.22;2.38;;;;;20.90;100660.00;;;;10456431;27;20226;-78
2023/07/26 18:54:58;;;;;;;8.50;3.00;;;;;20.80;100661.00;;;;10469343;27;20211;-78
2023/07/26 19:00:00;;;;;;;3.90;2.47;;;;;20.80;100670.00;;;;10450959;27;20235;-78
2023/07/26 19:05:01;;;;;;;6.25;2.90;;;;;20.70;100665.00;;;;10450898;27;20220;-77
2023/07/26 19:10:05;;;;;;;5.05;2.80;;;;;20.60;100666.00;;;;10435286;27;20241;-76
2023/07/26 19:15:07;;;;;;;3.95;3.10;;;;;20.40;100665.00;;;;10471379;27;20204;-79
2023/07/26 19:20:09;;;;;;;8.52;2.70;;;;;20.30;100664.00;;;;10471495;27;20200;-77
2023/07/26 19:25:10;;;;;;;3.25;2.53;;;;;20.10;100671.00;;;;10472417;27;20686;-78
2023/07/26 19:30:12;;;;;;;5.03;2.78;;;;;20.00;100675.00;;;;10452058;27;20239;-77
2023/07/26 19:35:13;;;;;;;4.78;3.03;;;;;19.80;100667.00;;;;10451210;27;20280;-77
2023/07/26 19:40:15;;;;;;;4.60;2.60;;;;;19.70;100681.00;;;;10435924;27;20204;-76
2023/07/26 19:45:16;;;;;;;5.95;3.00;;;;;19.60;100673.00;;;;10453409;27;20304;-77
2023/07/26 19:50:18;;;;;;;3.63;2.63;;;;;19.50;100669.00;;;;10452675;28;20216;-77
2023/07/26 19:55:19;;;;;;;6.50;2.83;;;;;19.40;100680.00;;;;10453271;27;20215;-77
2023/07/26 20:00:20;;;;;;;4.18;2.47;;;;;19.30;100690.00;;;;10468912;28;20215;-77
2023/07/26 20:05:27;;;;;;;5.40;2.65;;;;;19.30;100680.00;;;;10454314;27;20912;-77
2023/07/26 20:10:29;;;;;;;3.30;2.55;;;;;19.20;100673.00;;;;10445158;27;20216;-77
2023/07/26 20:15:31;;;;;;;3.67;2.60;;;;;19.10;100675.00;;;;10430886;27;20306;-76
2023/07/26 20:20:35;;;;;;;3.35;2.42;;;;;19.00;100670.00;;;;10451883;27;20200;-77
2023/07/26 20:25:36;;;;;;;3.85;2.50;;;;;19.00;100671.00;;;;10467490;27;20930;-76
2023/07/26 20:30:38;;;;;;;6.05;2.80;;;;;18.90;100657.00;;;;10429185;27;21800;-76
2023/07/26 20:35:40;;;;;;;3.38;2.20;;;;;18.80;100646.00;;;;10466881;27;20217;-78
2023/07/26 20:40:41;;;;;;;5.25;2.30;;;;;18.60;100648.00;;;;10455450;27;20216;-78
2023/07/26 20:45:43;;;;;;;4.28;2.08;;;;;18.60;100648.00;;;;10473328;27;20205;-78
2023/07/26 20:50:44;;;;;;;4.80;2.47;;;;;18.50;100644.00;;;;10453871;27;21720;-78
2023/07/26 20:55:46;;;;;;;3.80;2.25;;;;;18.50;100642.00;;;;10454502;27;20323;-77
2023/07/26 21:00:51;;;;;;;5.95;2.47;;;;;18.50;100636.00;;;;10470473;27;20275;-76
2023/07/26 21:05:53;;;;;;;5.18;2.40;;;;;18.40;100637.00;;;;10454109;27;21879;-77
2023/07/26 21:10:54;;;;;;;6.43;3.47;;;;;18.40;100633.00;;;;10469114;27;20247;-77
2023/07/26 21:15:58;;;;;;;5.22;2.97;;;;;18.40;100622.00;;;;10472855;27;20232;-76
2023/07/26 21:20:59;;;;;;;5.72;2.35;;;;;18.40;100622.00;;;;10462055;27;20239;-78
2023/07/26 21:26:00;;;;;;;5.55;3.00;;;;;18.40;100617.00;;;;10463598;27;20200;-78
2023/07/26 21:31:02;;;;;;;4.15;2.80;;;;;18.40;100613.00;;;;10482884;27;20273;-78
2023/07/26 21:36:04;;;;;;;3.58;2.55;;;;;18.40;100612.00;;;;10464001;27;20210;-78
2023/07/26 21:41:05;;;;;;;4.10;2.90;;;;;18.40;100604.00;;;;10461767;27;20205;-78
2023/07/26 21:46:06;;;;;;;6.30;2.70;;;;;18.40;100617.00;;;;10446040;27;20266;-78
2023/07/26 21:51:08;;;;;;;4.20;2.42;;;;;18.40;100625.00;;;;10478454;27;20220;-78
2023/07/26 21:56:09;;;;;;;4.32;2.67;;;;;18.40;100622.00;;;;10462947;27;20223;-78
2023/07/26 22:01:11;;;;;;;4.07;3.10;;;;;18.30;100613.00;;;;10475936;27;20276;-77
2023/07/26 22:06:13;;;;;;;7.38;2.88;;;;;18.20;100612.00;;;;10481488;27;20204;-75
2023/07/26 22:11:15;;;;;;;5.93;3.10;;;;;18.10;100606.00;;;;10465707;27;20301;-78
2023/07/26 22:16:17;;;;;;;7.75;3.33;;;;;18.00;100600.00;;;;10482194;27;21164;-78
2023/07/26 22:21:18;;;;;;;5.22;2.92;;;;;17.90;100601.00;;;;10446773;27;20203;-78
2023/07/26 22:26:20;;;;;;;5.35;2.72;;;;;17.80;100596.00;;;;10482193;27;20295;-78
2023/07/26 22:31:31;;;;;;;3.85;2.85;;;;;17.70;100596.00;;;;10464358;27;20998;-78
2023/07/26 22:36:33;;;;;;;2.63;2.22;;;;;17.60;100593.00;;;;10462857;27;20228;-78
2023/07/26 22:41:35;;;;;;;7.60;2.78;;;;;17.40;100574.00;;;;10468009;27;20219;-78
2023/07/26 22:46:37;;;;;;;5.88;2.80;;;;;17.30;100583.00;;;;10484477;27;20208;-78
2023/07/26 22:51:38;;;;;;;3.75;2.58;;;;;17.10;100577.00;;;;10462748;27;20225;-78
2023/07/26 22:56:42;;;;;;;6.70;2.95;;;;;16.90;100571.00;;;;10463856;27;20288;-78
2023/07/26 23:01:43;;;;;;;4.90;2.38;;;;;16.80;100569.00;;;;10461644;27;20202;-79
2023/07/26 23:06:45;;;;;;;3.53;2.53;;;;;16.60;100558.00;;;;10462094;27;21913;-78
2023/07/26 23:11:46;;;;;;;5.55;3.20;;;;;16.50;100554.00;;;;10460209;27;20219;-78
2023/07/26 23:16:48;;;;;;;6.82;3.20;;;;;16.40;100558.00;;;;10460011;27;20203;-78
2023/07/26 23:21:49;;;;;;;4.43;2.75;;;;;16.40;100552.00;;;;10465395;27;20566;-78
2023/07/26 23:26:51;;;;;;;5.78;2.72;;;;;16.30;100556.00;;;;10464878;27;20299;-78
2023/07/26 23:31:54;;;;;;;3.78;2.67;;;;;16.30;100536.00;;;;10458879;27;20228;-78
2023/07/26 23:36:55;;;;;;;8.75;2.83;;;;;16.20;100528.00;;;;10480689;27;20296;-78
2023/07/26 23:41:57;;;;;;;3.83;3.10;;;;;16.10;100525.00;;;;10479431;27;20216;-78
2023/07/26 23:46:58;;;;;;;6.40;3.10;;;;;16.00;100513.00;;;;10476727;27;20264;-79
2023/07/26 23:51:59;;;;;;;6.03;2.78;;;;;16.00;100508.00;;;;10476669;27;20256;-78
2023/07/26 23:57:01;;;;;;;5.45;2.70;;;;;15.90;100507.00;;;;10479086;27;20212;-78
